KSDF Airport Diagram

We have created a template for each of the higher traffic airports in the vZID airspace. They include KCMH, KCRW, KCVG, KDAY, KIND, KLEX and KSDF. You wil find usefull information including the airport diagram, weather, and specific airport procedures.

KSDF Weather

[Source: ADDS]
METAR
KSDF 251856Z 24020G25KT 10SM SCT065 BKN250 32/16 A3005 RMK AO2 PK WND 21028/1817 SLP171 T03170156 =
KSDF 251730Z 2518/2624 24013G23KT P6SM SCT060 SCT250 FM260000 22006KT P6SM SKC FM261600 24010G20KT P6SM FEW050 SCT250
TAF
KSDF 251730Z 2518/2624 24013G23KT P6SM SCT060 SCT250 FM260000 22006KT P6SM SKC FM261600 24010G20KT P6SM FEW050 SCT250 =

KSDF Operations

Calm Wind Configuration is runways 17L and 17R.

Runway 17L typically departs north and east.

Runway 17R typicall departs south and west.

 

JSN Epic template designed by JoomlaShine.com